Stations météo

Publicité
Braemar, Grande-Bretagne (99089): Température de l'air & dewpoint: 17.07.2018 18:00:00 - 23.07.2018 18:00:00 (BST)Braemar, Grande-Bretagne (99089): Température de l'air -20cm & Température de l'air -100cm: 17.07.2018 18:00:00 - 23.07.2018 18:00:00 (BST)Braemar, Grande-Bretagne (99089): Quantités de précipitations: 17.07.2018 18:00:00 - 23.07.2018 18:00:00 (BST)
Date & Time tt [°C] td [°C] tt -20cm [°C] tt -100cm [°C] rr [mm]
23.07.2018 18:00:00 - - - - 0,2
23.07.2018 17:00:00 16,8 14,6 - - 0,8
23.07.2018 16:00:00 19,7 13,3 - - 0,0
23.07.2018 15:00:00 20,3 13,3 - - 0,0
23.07.2018 14:00:00 20,8 12,8 - - 0,0
23.07.2018 13:00:00 21,0 14,7 - - 0,0
23.07.2018 12:00:00 20,5 13,5 - - 0,0
23.07.2018 11:00:00 19,9 13,3 - - 0,0
23.07.2018 10:00:00 19,3 14,0 17,7 14,7 0,0
23.07.2018 09:00:00 19,5 15,2 - - 0,0
23.07.2018 08:00:00 17,4 14,3 - - 0,0
23.07.2018 07:00:00 17,3 13,9 - - 0,0
23.07.2018 06:00:00 16,8 13,7 - - 0,0
23.07.2018 05:00:00 17,0 13,5 - - 0,0
23.07.2018 04:00:00 16,6 13,7 - - 0,0
23.07.2018 03:00:00 16,8 13,6 - - 0,0
23.07.2018 02:00:00 17,0 13,7 - - 0,0
23.07.2018 01:00:00 17,1 13,8 - - 0,0
23.07.2018 00:00:00 17,1 14,0 - - 0,0
22.07.2018 23:00:00 17,3 14,1 - - 0,0
22.07.2018 22:00:00 17,6 14,0 - - 0,0
22.07.2018 21:00:00 18,4 14,0 - - 0,0
22.07.2018 20:00:00 20,0 13,8 - - 0,0
22.07.2018 19:00:00 21,8 14,9 - - 0,0
22.07.2018 18:00:00 22,1 14,8 - - 0,0
22.07.2018 17:00:00 22,4 14,7 - - 0,0
22.07.2018 16:00:00 23,3 15,9 - - 0,0
22.07.2018 15:00:00 21,5 15,2 - - 0,0
22.07.2018 14:00:00 20,6 15,0 - - 0,0
22.07.2018 13:00:00 22,1 15,2 - - 0,0
22.07.2018 12:00:00 21,2 15,3 - - 0,0
22.07.2018 11:00:00 20,8 15,3 - - 0,0
22.07.2018 10:00:00 20,7 15,2 16,9 14,5 0,0
22.07.2018 09:00:00 20,2 15,5 - - 0,0
22.07.2018 08:00:00 17,7 14,1 - - 0,0
22.07.2018 07:00:00 17,8 14,2 - - 0,0
22.07.2018 06:00:00 16,5 14,0 - - 0,0
22.07.2018 05:00:00 13,8 13,2 - - 0,0
22.07.2018 04:00:00 13,8 12,2 - - 0,0
22.07.2018 03:00:00 13,7 11,4 - - 0,0
22.07.2018 02:00:00 13,8 11,6 - - 0,0
22.07.2018 01:00:00 14,4 11,3 - - 0,0
22.07.2018 00:00:00 14,3 11,2 - - 0,0
21.07.2018 23:00:00 14,0 11,3 - - 0,0
21.07.2018 22:00:00 14,5 11,0 - - 0,0
21.07.2018 21:00:00 15,9 11,0 - - 0,0
21.07.2018 20:00:00 16,6 11,3 - - 0,0
21.07.2018 19:00:00 18,2 9,4 - - 0,0
21.07.2018 18:00:00 19,5 9,9 - - 0,0
21.07.2018 17:00:00 21,0 10,2 - - 0,0
21.07.2018 16:00:00 20,8 11,6 - - 0,0
21.07.2018 15:00:00 21,5 11,5 - - 0,0
21.07.2018 14:00:00 20,4 12,0 - - 0,0
21.07.2018 13:00:00 19,5 12,9 - - 0,0
21.07.2018 12:00:00 18,7 12,2 - - 0,0
21.07.2018 11:00:00 19,0 13,8 - - 0,0
21.07.2018 10:00:00 17,0 13,5 16,7 14,5 0,0
21.07.2018 09:00:00 16,1 14,1 - - 0,0
21.07.2018 08:00:00 14,9 13,7 - - 0,0
21.07.2018 07:00:00 14,3 13,7 - - 0,0
21.07.2018 06:00:00 13,9 13,5 - - 0,0
21.07.2018 05:00:00 13,8 13,3 - - 0,0
21.07.2018 04:00:00 14,0 13,7 - - 0,2
21.07.2018 03:00:00 14,1 13,7 - - 0,0
21.07.2018 02:00:00 14,2 13,9 - - 0,0
21.07.2018 01:00:00 14,4 14,0 - - 0,0
21.07.2018 00:00:00 14,5 13,8 - - 0,0
20.07.2018 23:00:00 14,9 14,1 - - 0,2
20.07.2018 22:00:00 15,6 14,0 - - 0,0
20.07.2018 21:00:00 16,4 14,0 - - 0,0
20.07.2018 20:00:00 17,0 13,9 - - 0,0
20.07.2018 19:00:00 17,4 14,0 - - 0,0
20.07.2018 18:00:00 17,6 13,8 - - 0,0
20.07.2018 17:00:00 17,9 13,4 - - 0,0
20.07.2018 16:00:00 19,2 13,9 - - 0,0
20.07.2018 15:00:00 18,7 13,2 - - 0,0
20.07.2018 14:00:00 17,5 14,0 - - 0,0
20.07.2018 13:00:00 15,6 12,6 - - 0,0
20.07.2018 12:00:00 14,4 12,4 - - 0,2
20.07.2018 11:00:00 12,3 11,6 - - 3,6
20.07.2018 10:00:00 11,9 11,2 16,4 14,7 3,8
20.07.2018 09:00:00 11,9 11,1 - - 1,6
20.07.2018 08:00:00 11,6 10,5 - - 0,8
20.07.2018 07:00:00 11,5 10,7 - - 0,0
20.07.2018 06:00:00 11,2 10,5 - - 0,6
20.07.2018 05:00:00 11,2 9,8 - - 0,2
20.07.2018 04:00:00 11,3 9,7 - - 0,0
20.07.2018 03:00:00 11,2 9,6 - - 0,2
20.07.2018 02:00:00 11,2 9,4 - - 0,2
20.07.2018 01:00:00 11,7 8,3 - - 0,0
20.07.2018 00:00:00 13,0 7,1 - - 0,0
19.07.2018 23:00:00 12,8 7,1 - - 0,0
19.07.2018 22:00:00 13,2 7,1 - - 0,0
19.07.2018 21:00:00 14,0 7,1 - - 0,0
19.07.2018 20:00:00 16,1 7,4 - - 0,0
19.07.2018 19:00:00 18,4 7,8 - - 0,0
19.07.2018 18:00:00 19,3 7,7 - - 0,0
19.07.2018 17:00:00 19,4 8,1 - - 0,0
19.07.2018 16:00:00 20,5 8,3 - - 0,0
19.07.2018 15:00:00 20,1 8,2 - - 0,0
19.07.2018 14:00:00 20,4 7,4 - - 0,0
19.07.2018 13:00:00 18,9 6,5 - - 0,0
19.07.2018 12:00:00 19,9 7,0 - - 0,0
19.07.2018 11:00:00 18,2 6,8 - - 0,0
19.07.2018 10:00:00 18,0 7,8 16,0 14,7 0,0
19.07.2018 09:00:00 14,0 9,0 - - 0,0
19.07.2018 08:00:00 10,3 7,5 - - 0,0
19.07.2018 07:00:00 7,2 6,0 - - 0,0
19.07.2018 06:00:00 6,2 5,2 - - 0,0
19.07.2018 05:00:00 6,2 5,1 - - 0,0
19.07.2018 04:00:00 6,3 5,3 - - 0,0
19.07.2018 03:00:00 6,5 5,1 - - 0,0
19.07.2018 02:00:00 6,7 5,4 - - 0,0
19.07.2018 01:00:00 7,5 5,9 - - 0,0
19.07.2018 00:00:00 8,8 7,0 - - 0,0
18.07.2018 23:00:00 10,5 7,6 - - 0,0
18.07.2018 22:00:00 11,8 8,6 - - 0,0
18.07.2018 21:00:00 15,5 9,5 - - 0,0
18.07.2018 20:00:00 16,7 6,7 - - 0,0
18.07.2018 19:00:00 17,9 6,8 - - 0,0
18.07.2018 18:00:00 18,2 6,9 - - 0,0
18.07.2018 17:00:00 18,3 6,4 - - 0,0
18.07.2018 16:00:00 16,8 6,5 - - 0,0
18.07.2018 15:00:00 16,6 6,3 - - 0,0
18.07.2018 14:00:00 16,6 6,6 - - 0,0
18.07.2018 13:00:00 16,8 6,5 - - 0,0
18.07.2018 12:00:00 15,8 5,3 - - 0,0
18.07.2018 11:00:00 15,2 4,7 - - 0,0
18.07.2018 10:00:00 14,8 7,3 16,4 14,7 0,0
18.07.2018 09:00:00 14,4 7,3 - - 0,0
18.07.2018 08:00:00 11,8 8,6 - - 0,0
18.07.2018 07:00:00 8,2 6,9 - - 0,0
18.07.2018 06:00:00 7,1 5,4 - - 0,0
18.07.2018 05:00:00 8,5 6,6 - - 0,0
18.07.2018 04:00:00 8,3 6,1 - - 0,0
18.07.2018 03:00:00 8,0 6,0 - - 0,0
18.07.2018 02:00:00 8,2 5,9 - - 0,0
18.07.2018 01:00:00 8,4 5,5 - - 0,0
18.07.2018 00:00:00 10,3 6,2 - - 0,0
17.07.2018 23:00:00 12,2 6,7 - - 0,0
17.07.2018 22:00:00 13,3 7,4 - - 0,0
17.07.2018 21:00:00 14,3 7,7 - - 0,0
17.07.2018 20:00:00 15,6 7,5 - - 0,0
17.07.2018 19:00:00 15,2 8,3 - - 0,0
17.07.2018 18:00:00 15,6 8,7 - - 0,0

tt = Température de l'air
td = dewpoint
tt -20cm = Température de l'air -20cm
tt -100cm = Température de l'air -100cm
rr = Quantités de précipitations

stations d'obs. à proximité